sensor_id;sensor_type;location;lat;lon;timestamp;temperature;humidity
843;DHT22;407;48.884;9.126;2023-12-07T00:00:35;3.20;1.00
843;DHT22;407;48.884;9.126;2023-12-07T00:03:00;3.20;1.00
843;DHT22;407;48.884;9.126;2023-12-07T00:05:26;3.20;1.00
843;DHT22;407;48.884;9.126;2023-12-07T00:07:51;3.30;1.00
843;DHT22;407;48.884;9.126;2023-12-07T00:10:17;3.30;1.00
843;DHT22;407;48.884;9.126;2023-12-07T00:12:42;3.30;1.00
843;DHT22;407;48.884;9.126;2023-12-07T00:15:08;3.30;1.00
843;DHT22;407;48.884;9.126;2023-12-07T00:17:34;3.40;1.00
843;DHT22;407;48.884;9.126;2023-12-07T00:19:59;3.50;1.00
843;DHT22;407;48.884;9.126;2023-12-07T00:22:25;3.50;1.00
843;DHT22;407;48.884;9.126;2023-12-07T00:24:51;3.50;1.00
843;DHT22;407;48.884;9.126;2023-12-07T00:27:17;3.50;1.00
843;DHT22;407;48.884;9.126;2023-12-07T00:29:43;3.50;1.00
843;DHT22;407;48.884;9.126;2023-12-07T00:32:08;3.40;1.00
843;DHT22;407;48.884;9.126;2023-12-07T00:34:34;3.50;1.00
843;DHT22;407;48.884;9.126;2023-12-07T00:36:59;3.40;1.00
843;DHT22;407;48.884;9.126;2023-12-07T00:39:25;3.40;1.00
843;DHT22;407;48.884;9.126;2023-12-07T00:41:50;3.50;1.00
843;DHT22;407;48.884;9.126;2023-12-07T00:44:16;3.50;1.00
843;DHT22;407;48.884;9.126;2023-12-07T00:46:41;3.50;1.00
843;DHT22;407;48.884;9.126;2023-12-07T00:49:07;3.60;1.00
843;DHT22;407;48.884;9.126;2023-12-07T00:51:32;3.60;1.00
843;DHT22;407;48.884;9.126;2023-12-07T00:53:58;3.70;1.00
843;DHT22;407;48.884;9.126;2023-12-07T00:56:24;3.70;1.00
843;DHT22;407;48.884;9.126;2023-12-07T00:58:50;3.80;1.00
843;DHT22;407;48.884;9.126;2023-12-07T01:01:15;3.70;1.00
843;DHT22;407;48.884;9.126;2023-12-07T01:03:41;3.80;1.00
843;DHT22;407;48.884;9.126;2023-12-07T01:06:07;3.80;1.00
843;DHT22;407;48.884;9.126;2023-12-07T01:08:33;3.80;1.00
843;DHT22;407;48.884;9.126;2023-12-07T01:10:58;3.90;1.00
843;DHT22;407;48.884;9.126;2023-12-07T01:13:24;4.00;1.00
843;DHT22;407;48.884;9.126;2023-12-07T01:15:50;4.10;1.00
843;DHT22;407;48.884;9.126;2023-12-07T01:18:16;4.10;1.00
843;DHT22;407;48.884;9.126;2023-12-07T01:20:41;4.10;1.00
843;DHT22;407;48.884;9.126;2023-12-07T01:23:07;4.20;1.00
843;DHT22;407;48.884;9.126;2023-12-07T01:25:36;4.20;1.00
843;DHT22;407;48.884;9.126;2023-12-07T01:28:01;4.20;1.00
843;DHT22;407;48.884;9.126;2023-12-07T01:30:27;4.20;1.00
843;DHT22;407;48.884;9.126;2023-12-07T01:32:52;4.30;1.00
843;DHT22;407;48.884;9.126;2023-12-07T01:35:18;4.30;1.00
843;DHT22;407;48.884;9.126;2023-12-07T01:37:43;4.40;1.00
843;DHT22;407;48.884;9.126;2023-12-07T01:40:09;4.40;1.00
843;DHT22;407;48.884;9.126;2023-12-07T01:42:36;4.40;1.00
843;DHT22;407;48.884;9.126;2023-12-07T01:45:03;4.50;1.00
843;DHT22;407;48.884;9.126;2023-12-07T01:47:29;4.50;1.00
843;DHT22;407;48.884;9.126;2023-12-07T01:49:55;4.50;1.00
843;DHT22;407;48.884;9.126;2023-12-07T01:52:22;4.60;1.00
843;DHT22;407;48.884;9.126;2023-12-07T01:54:48;4.50;1.00
843;DHT22;407;48.884;9.126;2023-12-07T01:57:14;4.60;1.00
843;DHT22;407;48.884;9.126;2023-12-07T01:59:39;4.50;1.00
843;DHT22;407;48.884;9.126;2023-12-07T02:02:05;4.60;1.00
843;DHT22;407;48.884;9.126;2023-12-07T02:04:31;4.60;1.00
843;DHT22;407;48.884;9.126;2023-12-07T02:06:57;4.60;1.00
843;DHT22;407;48.884;9.126;2023-12-07T02:09:25;4.60;1.00
843;DHT22;407;48.884;9.126;2023-12-07T02:11:50;4.60;1.00
843;DHT22;407;48.884;9.126;2023-12-07T02:14:16;4.50;1.00
843;DHT22;407;48.884;9.126;2023-12-07T02:16:46;4.40;1.00
843;DHT22;407;48.884;9.126;2023-12-07T02:19:48;4.30;1.00
843;DHT22;407;48.884;9.126;2023-12-07T02:22:22;4.20;1.00
843;DHT22;407;48.884;9.126;2023-12-07T02:25:07;4.10;1.00
843;DHT22;407;48.884;9.126;2023-12-07T02:27:43;4.10;1.00
843;DHT22;407;48.884;9.126;2023-12-07T02:30:11;4.10;1.00
843;DHT22;407;48.884;9.126;2023-12-07T02:32:38;4.10;1.00
843;DHT22;407;48.884;9.126;2023-12-07T02:35:04;4.00;1.00
843;DHT22;407;48.884;9.126;2023-12-07T02:37:37;3.90;1.00
843;DHT22;407;48.884;9.126;2023-12-07T02:40:06;3.80;1.00
843;DHT22;407;48.884;9.126;2023-12-07T02:42:40;3.70;1.00
843;DHT22;407;48.884;9.126;2023-12-07T02:45:10;3.60;1.00
843;DHT22;407;48.884;9.126;2023-12-07T02:47:36;3.60;1.00
843;DHT22;407;48.884;9.126;2023-12-07T02:50:03;3.50;1.00
843;DHT22;407;48.884;9.126;2023-12-07T02:52:29;3.60;1.00
843;DHT22;407;48.884;9.126;2023-12-07T02:54:55;3.60;1.00
843;DHT22;407;48.884;9.126;2023-12-07T02:57:20;3.60;1.00
843;DHT22;407;48.884;9.126;2023-12-07T02:59:46;3.60;1.00
843;DHT22;407;48.884;9.126;2023-12-07T03:02:11;3.50;1.00
843;DHT22;407;48.884;9.126;2023-12-07T03:04:37;3.50;1.00
843;DHT22;407;48.884;9.126;2023-12-07T03:07:03;3.50;1.00
843;DHT22;407;48.884;9.126;2023-12-07T03:09:28;3.30;1.00
843;DHT22;407;48.884;9.126;2023-12-07T03:11:54;3.30;1.00
843;DHT22;407;48.884;9.126;2023-12-07T03:14:19;3.30;1.00
843;DHT22;407;48.884;9.126;2023-12-07T03:16:46;3.30;1.00
843;DHT22;407;48.884;9.126;2023-12-07T03:19:11;3.30;1.00
843;DHT22;407;48.884;9.126;2023-12-07T03:21:41;3.10;1.00
843;DHT22;407;48.884;9.126;2023-12-07T03:24:07;3.10;1.00
843;DHT22;407;48.884;9.126;2023-12-07T03:26:34;3.00;1.00
843;DHT22;407;48.884;9.126;2023-12-07T03:28:59;3.00;1.00
843;DHT22;407;48.884;9.126;2023-12-07T03:31:25;3.00;1.00
843;DHT22;407;48.884;9.126;2023-12-07T03:33:50;3.00;1.00
843;DHT22;407;48.884;9.126;2023-12-07T03:36:16;2.80;1.00
843;DHT22;407;48.884;9.126;2023-12-07T03:38:42;2.60;1.00
843;DHT22;407;48.884;9.126;2023-12-07T03:41:08;2.40;1.00
843;DHT22;407;48.884;9.126;2023-12-07T03:43:33;2.40;1.00
843;DHT22;407;48.884;9.126;2023-12-07T03:45:59;2.30;1.00
843;DHT22;407;48.884;9.126;2023-12-07T03:48:24;2.30;1.00
843;DHT22;407;48.884;9.126;2023-12-07T03:50:50;2.30;1.00
843;DHT22;407;48.884;9.126;2023-12-07T03:53:15;2.30;1.00
843;DHT22;407;48.884;9.126;2023-12-07T03:55:41;2.20;1.00
843;DHT22;407;48.884;9.126;2023-12-07T03:58:07;2.30;1.00
843;DHT22;407;48.884;9.126;2023-12-07T04:00:32;2.60;1.00
843;DHT22;407;48.884;9.126;2023-12-07T04:02:58;2.70;1.00
843;DHT22;407;48.884;9.126;2023-12-07T04:05:23;2.60;1.00
843;DHT22;407;48.884;9.126;2023-12-07T04:07:49;2.60;1.00
843;DHT22;407;48.884;9.126;2023-12-07T04:10:15;2.70;1.00
843;DHT22;407;48.884;9.126;2023-12-07T04:12:41;2.70;1.00
843;DHT22;407;48.884;9.126;2023-12-07T04:15:07;2.60;1.00
843;DHT22;407;48.884;9.126;2023-12-07T04:17:33;2.50;1.00
843;DHT22;407;48.884;9.126;2023-12-07T04:19:58;2.40;1.00
843;DHT22;407;48.884;9.126;2023-12-07T04:22:24;2.50;1.00
843;DHT22;407;48.884;9.126;2023-12-07T04:24:49;2.50;1.00
843;DHT22;407;48.884;9.126;2023-12-07T04:27:15;2.50;1.00
843;DHT22;407;48.884;9.126;2023-12-07T04:29:40;2.40;1.00
843;DHT22;407;48.884;9.126;2023-12-07T04:32:07;2.40;1.00
843;DHT22;407;48.884;9.126;2023-12-07T04:34:32;2.30;1.00
843;DHT22;407;48.884;9.126;2023-12-07T04:36:58;2.30;1.00
843;DHT22;407;48.884;9.126;2023-12-07T04:39:23;2.20;1.00
843;DHT22;407;48.884;9.126;2023-12-07T04:41:49;2.30;1.00
843;DHT22;407;48.884;9.126;2023-12-07T04:44:15;2.30;1.00
843;DHT22;407;48.884;9.126;2023-12-07T04:46:41;2.40;1.00
843;DHT22;407;48.884;9.126;2023-12-07T04:49:07;2.30;1.00
843;DHT22;407;48.884;9.126;2023-12-07T04:51:33;2.30;1.00
843;DHT22;407;48.884;9.126;2023-12-07T04:53:58;2.30;1.00
843;DHT22;407;48.884;9.126;2023-12-07T04:56:24;2.20;1.00
843;DHT22;407;48.884;9.126;2023-12-07T04:58:50;2.30;1.00
843;DHT22;407;48.884;9.126;2023-12-07T05:01:15;2.40;1.00
843;DHT22;407;48.884;9.126;2023-12-07T05:03:41;2.60;1.00
843;DHT22;407;48.884;9.126;2023-12-07T05:06:06;2.70;1.00
843;DHT22;407;48.884;9.126;2023-12-07T05:08:33;2.70;1.00
843;DHT22;407;48.884;9.126;2023-12-07T05:10:58;2.70;1.00
843;DHT22;407;48.884;9.126;2023-12-07T05:13:24;2.60;1.00
843;DHT22;407;48.884;9.126;2023-12-07T05:15:49;2.50;1.00
843;DHT22;407;48.884;9.126;2023-12-07T05:18:15;2.40;1.00
843;DHT22;407;48.884;9.126;2023-12-07T05:20:40;2.20;1.00
843;DHT22;407;48.884;9.126;2023-12-07T05:23:06;2.10;1.00
843;DHT22;407;48.884;9.126;2023-12-07T05:25:32;2.10;1.00
843;DHT22;407;48.884;9.126;2023-12-07T05:27:58;2.10;1.00
843;DHT22;407;48.884;9.126;2023-12-07T05:30:23;2.00;1.00
843;DHT22;407;48.884;9.126;2023-12-07T05:32:49;1.90;1.00
843;DHT22;407;48.884;9.126;2023-12-07T05:35:16;2.00;1.00
843;DHT22;407;48.884;9.126;2023-12-07T05:37:41;1.90;1.00
843;DHT22;407;48.884;9.126;2023-12-07T05:40:07;1.90;1.00
843;DHT22;407;48.884;9.126;2023-12-07T05:42:33;1.90;1.00
843;DHT22;407;48.884;9.126;2023-12-07T05:44:59;2.00;1.00
843;DHT22;407;48.884;9.126;2023-12-07T05:47:26;2.00;1.00
843;DHT22;407;48.884;9.126;2023-12-07T05:49:51;2.00;1.00
843;DHT22;407;48.884;9.126;2023-12-07T05:52:17;2.10;1.00
843;DHT22;407;48.884;9.126;2023-12-07T05:54:42;2.00;1.00
843;DHT22;407;48.884;9.126;2023-12-07T05:57:09;2.00;1.00
843;DHT22;407;48.884;9.126;2023-12-07T05:59:38;1.90;1.00
843;DHT22;407;48.884;9.126;2023-12-07T06:02:04;1.80;1.00
843;DHT22;407;48.884;9.126;2023-12-07T06:04:30;1.80;1.00
843;DHT22;407;48.884;9.126;2023-12-07T06:06:55;1.70;1.00
843;DHT22;407;48.884;9.126;2023-12-07T06:09:21;1.70;1.00
843;DHT22;407;48.884;9.126;2023-12-07T06:11:46;1.70;1.00
843;DHT22;407;48.884;9.126;2023-12-07T06:14:12;1.80;1.00
843;DHT22;407;48.884;9.126;2023-12-07T06:16:37;1.80;1.00
843;DHT22;407;48.884;9.126;2023-12-07T06:19:03;1.70;1.00
843;DHT22;407;48.884;9.126;2023-12-07T06:21:29;1.70;1.00
843;DHT22;407;48.884;9.126;2023-12-07T06:23:55;1.60;1.00
843;DHT22;407;48.884;9.126;2023-12-07T06:26:21;1.60;1.00
843;DHT22;407;48.884;9.126;2023-12-07T06:28:47;1.50;1.00
843;DHT22;407;48.884;9.126;2023-12-07T06:31:13;1.60;1.00
843;DHT22;407;48.884;9.126;2023-12-07T06:33:41;1.70;1.00
843;DHT22;407;48.884;9.126;2023-12-07T06:36:07;1.80;1.00
843;DHT22;407;48.884;9.126;2023-12-07T06:38:32;1.70;1.00
843;DHT22;407;48.884;9.126;2023-12-07T06:40:58;1.80;1.00
843;DHT22;407;48.884;9.126;2023-12-07T06:43:23;2.00;1.00
843;DHT22;407;48.884;9.126;2023-12-07T06:45:49;1.90;1.00
843;DHT22;407;48.884;9.126;2023-12-07T06:48:15;1.90;1.00
843;DHT22;407;48.884;9.126;2023-12-07T06:50:40;1.80;1.00
843;DHT22;407;48.884;9.126;2023-12-07T06:53:06;1.70;1.00
843;DHT22;407;48.884;9.126;2023-12-07T06:55:32;1.70;1.00
843;DHT22;407;48.884;9.126;2023-12-07T06:57:58;1.60;1.00
843;DHT22;407;48.884;9.126;2023-12-07T07:00:23;1.60;1.00
843;DHT22;407;48.884;9.126;2023-12-07T07:02:50;1.40;1.00
843;DHT22;407;48.884;9.126;2023-12-07T07:05:15;1.40;1.00
843;DHT22;407;48.884;9.126;2023-12-07T07:07:41;1.50;1.00
843;DHT22;407;48.884;9.126;2023-12-07T07:10:07;1.80;1.00
843;DHT22;407;48.884;9.126;2023-12-07T07:12:35;1.80;1.00
843;DHT22;407;48.884;9.126;2023-12-07T07:15:00;1.80;1.00
843;DHT22;407;48.884;9.126;2023-12-07T07:17:26;1.80;1.00
843;DHT22;407;48.884;9.126;2023-12-07T07:19:54;1.80;1.00
843;DHT22;407;48.884;9.126;2023-12-07T07:22:20;1.80;1.00
843;DHT22;407;48.884;9.126;2023-12-07T07:24:47;1.80;1.00
843;DHT22;407;48.884;9.126;2023-12-07T07:27:12;1.70;1.00
843;DHT22;407;48.884;9.126;2023-12-07T07:29:38;1.70;1.00
843;DHT22;407;48.884;9.126;2023-12-07T07:32:04;1.70;1.00
843;DHT22;407;48.884;9.126;2023-12-07T07:34:30;1.70;1.00
843;DHT22;407;48.884;9.126;2023-12-07T07:36:55;1.70;1.00
843;DHT22;407;48.884;9.126;2023-12-07T07:39:21;1.80;1.00
843;DHT22;407;48.884;9.126;2023-12-07T07:41:46;1.90;1.00
843;DHT22;407;48.884;9.126;2023-12-07T07:44:11;2.00;1.00
843;DHT22;407;48.884;9.126;2023-12-07T07:46:37;2.10;1.00
843;DHT22;407;48.884;9.126;2023-12-07T07:49:02;2.30;1.00
843;DHT22;407;48.884;9.126;2023-12-07T07:51:29;2.50;1.00
843;DHT22;407;48.884;9.126;2023-12-07T07:53:55;2.50;1.00
843;DHT22;407;48.884;9.126;2023-12-07T07:56:22;2.60;1.00
843;DHT22;407;48.884;9.126;2023-12-07T07:58:47;2.50;1.00
843;DHT22;407;48.884;9.126;2023-12-07T08:01:13;2.40;1.00
843;DHT22;407;48.884;9.126;2023-12-07T08:03:38;2.40;1.00
843;DHT22;407;48.884;9.126;2023-12-07T08:06:04;2.50;1.00
843;DHT22;407;48.884;9.126;2023-12-07T08:08:30;2.60;1.00
843;DHT22;407;48.884;9.126;2023-12-07T08:10:55;2.60;1.00
843;DHT22;407;48.884;9.126;2023-12-07T08:13:21;2.60;1.00
843;DHT22;407;48.884;9.126;2023-12-07T08:15:46;2.70;1.00
843;DHT22;407;48.884;9.126;2023-12-07T08:18:12;2.80;1.00
843;DHT22;407;48.884;9.126;2023-12-07T08:20:37;2.90;1.00
843;DHT22;407;48.884;9.126;2023-12-07T08:23:03;2.90;1.00
843;DHT22;407;48.884;9.126;2023-12-07T08:25:28;3.10;1.00
843;DHT22;407;48.884;9.126;2023-12-07T08:27:54;3.30;1.00
843;DHT22;407;48.884;9.126;2023-12-07T08:30:20;3.40;1.00
843;DHT22;407;48.884;9.126;2023-12-07T08:32:45;3.50;1.00
843;DHT22;407;48.884;9.126;2023-12-07T08:35:11;3.60;1.00
843;DHT22;407;48.884;9.126;2023-12-07T08:37:39;3.60;1.00
843;DHT22;407;48.884;9.126;2023-12-07T08:40:06;3.70;1.00
843;DHT22;407;48.884;9.126;2023-12-07T08:42:31;3.90;1.00
843;DHT22;407;48.884;9.126;2023-12-07T08:44:57;4.10;1.00
843;DHT22;407;48.884;9.126;2023-12-07T08:47:23;4.60;1.00
843;DHT22;407;48.884;9.126;2023-12-07T08:49:50;5.50;1.00
843;DHT22;407;48.884;9.126;2023-12-07T08:52:16;7.10;1.00
843;DHT22;407;48.884;9.126;2023-12-07T08:54:43;9.00;1.00
843;DHT22;407;48.884;9.126;2023-12-07T08:57:09;10.60;1.00
843;DHT22;407;48.884;9.126;2023-12-07T08:59:34;11.60;1.00
843;DHT22;407;48.884;9.126;2023-12-07T09:02:00;12.10;1.00
843;DHT22;407;48.884;9.126;2023-12-07T09:04:26;12.10;1.00
843;DHT22;407;48.884;9.126;2023-12-07T09:06:52;12.30;1.00
843;DHT22;407;48.884;9.126;2023-12-07T09:09:17;12.30;1.00
843;DHT22;407;48.884;9.126;2023-12-07T09:11:43;12.50;1.00
843;DHT22;407;48.884;9.126;2023-12-07T09:14:08;12.90;1.00
843;DHT22;407;48.884;9.126;2023-12-07T09:16:34;13.10;1.00
843;DHT22;407;48.884;9.126;2023-12-07T09:19:00;13.20;1.00
843;DHT22;407;48.884;9.126;2023-12-07T09:21:25;13.30;1.00
843;DHT22;407;48.884;9.126;2023-12-07T09:23:51;13.60;1.00
843;DHT22;407;48.884;9.126;2023-12-07T09:26:17;14.70;1.00
843;DHT22;407;48.884;9.126;2023-12-07T09:28:43;14.80;1.00
843;DHT22;407;48.884;9.126;2023-12-07T09:31:08;15.10;1.00
843;DHT22;407;48.884;9.126;2023-12-07T09:33:34;15.30;1.00
843;DHT22;407;48.884;9.126;2023-12-07T09:35:59;15.70;1.00
843;DHT22;407;48.884;9.126;2023-12-07T09:38:25;15.80;1.00
843;DHT22;407;48.884;9.126;2023-12-07T09:40:53;15.80;1.00
843;DHT22;407;48.884;9.126;2023-12-07T09:43:19;15.90;1.00
843;DHT22;407;48.884;9.126;2023-12-07T09:45:45;15.60;1.00
843;DHT22;407;48.884;9.126;2023-12-07T09:48:11;15.60;1.00
843;DHT22;407;48.884;9.126;2023-12-07T09:50:36;15.10;99.90
843;DHT22;407;48.884;9.126;2023-12-07T09:53:02;14.60;99.90
843;DHT22;407;48.884;9.126;2023-12-07T09:55:28;15.20;1.00
843;DHT22;407;48.884;9.126;2023-12-07T09:57:53;15.40;1.00
843;DHT22;407;48.884;9.126;2023-12-07T10:00:22;14.30;99.90
843;DHT22;407;48.884;9.126;2023-12-07T10:02:48;14.40;99.90
843;DHT22;407;48.884;9.126;2023-12-07T10:05:14;14.90;99.90
843;DHT22;407;48.884;9.126;2023-12-07T10:07:42;14.80;99.90
843;DHT22;407;48.884;9.126;2023-12-07T10:10:09;14.80;1.00
843;DHT22;407;48.884;9.126;2023-12-07T10:12:48;15.30;99.90
843;DHT22;407;48.884;9.126;2023-12-07T10:15:17;15.30;99.90
843;DHT22;407;48.884;9.126;2023-12-07T10:17:50;15.30;99.90
843;DHT22;407;48.884;9.126;2023-12-07T10:20:23;15.40;99.90
843;DHT22;407;48.884;9.126;2023-12-07T10:23:04;15.10;99.90
843;DHT22;407;48.884;9.126;2023-12-07T10:25:30;14.90;99.90
843;DHT22;407;48.884;9.126;2023-12-07T10:27:56;14.80;99.90
843;DHT22;407;48.884;9.126;2023-12-07T10:30:21;13.90;99.90
843;DHT22;407;48.884;9.126;2023-12-07T10:32:51;14.20;99.90
843;DHT22;407;48.884;9.126;2023-12-07T10:35:18;14.40;99.90
843;DHT22;407;48.884;9.126;2023-12-07T10:37:43;14.90;99.90
843;DHT22;407;48.884;9.126;2023-12-07T10:40:09;15.00;99.90
843;DHT22;407;48.884;9.126;2023-12-07T10:42:36;15.40;99.90
843;DHT22;407;48.884;9.126;2023-12-07T10:45:06;15.30;99.90
843;DHT22;407;48.884;9.126;2023-12-07T10:47:37;14.50;99.90
843;DHT22;407;48.884;9.126;2023-12-07T10:50:06;14.70;99.90
843;DHT22;407;48.884;9.126;2023-12-07T10:52:37;14.00;99.90
843;DHT22;407;48.884;9.126;2023-12-07T10:55:07;13.20;99.90
843;DHT22;407;48.884;9.126;2023-12-07T10:57:34;13.40;99.90
843;DHT22;407;48.884;9.126;2023-12-07T11:00:01;13.10;99.90
843;DHT22;407;48.884;9.126;2023-12-07T11:02:28;13.10;99.90
843;DHT22;407;48.884;9.126;2023-12-07T11:04:56;12.80;99.90
843;DHT22;407;48.884;9.126;2023-12-07T11:07:24;13.10;99.90
843;DHT22;407;48.884;9.126;2023-12-07T11:09:58;13.60;99.90
843;DHT22;407;48.884;9.126;2023-12-07T11:12:33;13.30;99.90
843;DHT22;407;48.884;9.126;2023-12-07T11:15:01;13.50;99.90
843;DHT22;407;48.884;9.126;2023-12-07T11:17:27;13.40;99.90
843;DHT22;407;48.884;9.126;2023-12-07T11:19:52;12.30;99.90
843;DHT22;407;48.884;9.126;2023-12-07T11:22:18;11.30;99.90
843;DHT22;407;48.884;9.126;2023-12-07T11:24:55;10.10;99.90
843;DHT22;407;48.884;9.126;2023-12-07T11:27:23;9.70;99.90
843;DHT22;407;48.884;9.126;2023-12-07T11:29:49;9.60;99.90
843;DHT22;407;48.884;9.126;2023-12-07T11:32:15;9.50;99.90
843;DHT22;407;48.884;9.126;2023-12-07T11:34:41;9.30;99.90
843;DHT22;407;48.884;9.126;2023-12-07T11:37:08;9.10;99.90
843;DHT22;407;48.884;9.126;2023-12-07T11:39:40;9.00;99.90
843;DHT22;407;48.884;9.126;2023-12-07T11:42:16;8.70;99.90
843;DHT22;407;48.884;9.126;2023-12-07T11:44:43;8.40;99.90
843;DHT22;407;48.884;9.126;2023-12-07T11:47:16;8.40;99.90
843;DHT22;407;48.884;9.126;2023-12-07T11:49:43;8.50;99.90
843;DHT22;407;48.884;9.126;2023-12-07T11:52:21;8.20;99.90
843;DHT22;407;48.884;9.126;2023-12-07T11:54:48;8.10;99.90
843;DHT22;407;48.884;9.126;2023-12-07T11:57:14;8.40;99.90
843;DHT22;407;48.884;9.126;2023-12-07T11:59:41;8.50;99.90
843;DHT22;407;48.884;9.126;2023-12-07T12:02:07;8.50;99.90
843;DHT22;407;48.884;9.126;2023-12-07T12:04:33;8.50;99.90
843;DHT22;407;48.884;9.126;2023-12-07T12:06:59;8.40;99.90
843;DHT22;407;48.884;9.126;2023-12-07T12:09:25;8.10;99.90
843;DHT22;407;48.884;9.126;2023-12-07T12:11:50;7.90;99.90
843;DHT22;407;48.884;9.126;2023-12-07T12:14:19;8.20;99.90
843;DHT22;407;48.884;9.126;2023-12-07T12:16:46;8.00;99.90
843;DHT22;407;48.884;9.126;2023-12-07T12:19:12;7.90;99.90
843;DHT22;407;48.884;9.126;2023-12-07T12:21:38;8.00;99.90
843;DHT22;407;48.884;9.126;2023-12-07T12:24:05;8.00;99.90
843;DHT22;407;48.884;9.126;2023-12-07T12:26:33;7.90;99.90
843;DHT22;407;48.884;9.126;2023-12-07T12:28:58;7.90;99.90
843;DHT22;407;48.884;9.126;2023-12-07T12:31:24;7.90;99.90
843;DHT22;407;48.884;9.126;2023-12-07T12:33:50;7.90;99.90
843;DHT22;407;48.884;9.126;2023-12-07T12:36:15;8.00;99.90
843;DHT22;407;48.884;9.126;2023-12-07T12:38:47;8.10;99.90
843;DHT22;407;48.884;9.126;2023-12-07T12:41:18;8.10;99.90
843;DHT22;407;48.884;9.126;2023-12-07T12:43:45;8.10;99.90
843;DHT22;407;48.884;9.126;2023-12-07T12:46:11;8.20;99.90
843;DHT22;407;48.884;9.126;2023-12-07T12:48:37;8.10;99.90
843;DHT22;407;48.884;9.126;2023-12-07T12:51:13;7.90;99.90
843;DHT22;407;48.884;9.126;2023-12-07T12:53:45;8.00;99.90
843;DHT22;407;48.884;9.126;2023-12-07T12:56:12;8.10;99.90
843;DHT22;407;48.884;9.126;2023-12-07T12:58:37;8.10;99.90
843;DHT22;407;48.884;9.126;2023-12-07T13:01:03;8.20;99.90
843;DHT22;407;48.884;9.126;2023-12-07T13:03:29;8.20;99.90
843;DHT22;407;48.884;9.126;2023-12-07T13:05:54;8.20;99.90
843;DHT22;407;48.884;9.126;2023-12-07T13:08:20;8.00;99.90
843;DHT22;407;48.884;9.126;2023-12-07T13:10:46;8.10;99.90
843;DHT22;407;48.884;9.126;2023-12-07T13:13:11;8.30;99.90
843;DHT22;407;48.884;9.126;2023-12-07T13:15:38;8.40;99.90
843;DHT22;407;48.884;9.126;2023-12-07T13:18:03;8.30;99.90
843;DHT22;407;48.884;9.126;2023-12-07T13:20:31;8.10;99.90
843;DHT22;407;48.884;9.126;2023-12-07T13:22:56;8.10;99.90
843;DHT22;407;48.884;9.126;2023-12-07T13:25:22;8.20;99.90
843;DHT22;407;48.884;9.126;2023-12-07T13:27:47;8.10;99.90
843;DHT22;407;48.884;9.126;2023-12-07T13:30:13;7.90;99.90
843;DHT22;407;48.884;9.126;2023-12-07T13:32:39;7.90;99.90
843;DHT22;407;48.884;9.126;2023-12-07T13:35:07;7.90;99.90
843;DHT22;407;48.884;9.126;2023-12-07T13:37:33;7.90;99.90
843;DHT22;407;48.884;9.126;2023-12-07T13:39:59;7.90;99.90
843;DHT22;407;48.884;9.126;2023-12-07T13:42:25;7.90;99.90
843;DHT22;407;48.884;9.126;2023-12-07T13:44:55;7.70;99.90
843;DHT22;407;48.884;9.126;2023-12-07T13:47:26;7.80;99.90
843;DHT22;407;48.884;9.126;2023-12-07T13:49:56;7.70;99.90
843;DHT22;407;48.884;9.126;2023-12-07T13:52:22;7.70;99.90
843;DHT22;407;48.884;9.126;2023-12-07T13:54:47;7.60;99.90
843;DHT22;407;48.884;9.126;2023-12-07T13:57:14;7.50;99.90
843;DHT22;407;48.884;9.126;2023-12-07T13:59:40;7.30;99.90
843;DHT22;407;48.884;9.126;2023-12-07T14:02:06;7.30;99.90
843;DHT22;407;48.884;9.126;2023-12-07T14:04:35;7.30;99.90
843;DHT22;407;48.884;9.126;2023-12-07T14:07:11;7.40;99.90
843;DHT22;407;48.884;9.126;2023-12-07T14:09:42;7.40;99.90
843;DHT22;407;48.884;9.126;2023-12-07T14:12:08;7.40;99.90
843;DHT22;407;48.884;9.126;2023-12-07T14:14:36;7.40;99.90
843;DHT22;407;48.884;9.126;2023-12-07T14:17:02;7.30;99.90
843;DHT22;407;48.884;9.126;2023-12-07T14:19:28;7.30;99.90
843;DHT22;407;48.884;9.126;2023-12-07T14:21:54;7.20;99.90
843;DHT22;407;48.884;9.126;2023-12-07T14:24:21;7.30;99.90
843;DHT22;407;48.884;9.126;2023-12-07T14:26:47;7.20;99.90
843;DHT22;407;48.884;9.126;2023-12-07T14:29:14;7.20;99.90
843;DHT22;407;48.884;9.126;2023-12-07T14:31:41;7.00;99.90
843;DHT22;407;48.884;9.126;2023-12-07T14:34:06;7.00;99.90
843;DHT22;407;48.884;9.126;2023-12-07T14:36:32;6.90;99.90
843;DHT22;407;48.884;9.126;2023-12-07T14:38:58;6.80;99.90
843;DHT22;407;48.884;9.126;2023-12-07T14:41:23;6.80;99.90
843;DHT22;407;48.884;9.126;2023-12-07T14:43:49;6.60;99.90
843;DHT22;407;48.884;9.126;2023-12-07T14:46:14;6.60;99.90
843;DHT22;407;48.884;9.126;2023-12-07T14:48:40;6.50;99.90
843;DHT22;407;48.884;9.126;2023-12-07T14:51:05;6.40;99.90
843;DHT22;407;48.884;9.126;2023-12-07T14:53:32;6.40;99.90
843;DHT22;407;48.884;9.126;2023-12-07T14:55:59;6.30;99.90
843;DHT22;407;48.884;9.126;2023-12-07T14:58:24;6.20;99.90
843;DHT22;407;48.884;9.126;2023-12-07T15:00:51;6.20;99.90
843;DHT22;407;48.884;9.126;2023-12-07T15:03:16;6.10;99.90
843;DHT22;407;48.884;9.126;2023-12-07T15:05:44;6.10;99.90
843;DHT22;407;48.884;9.126;2023-12-07T15:08:10;6.10;99.90
843;DHT22;407;48.884;9.126;2023-12-07T15:10:37;6.00;99.90
843;DHT22;407;48.884;9.126;2023-12-07T15:13:03;5.90;99.90
843;DHT22;407;48.884;9.126;2023-12-07T15:15:29;5.60;99.90
843;DHT22;407;48.884;9.126;2023-12-07T15:17:55;5.50;99.90
843;DHT22;407;48.884;9.126;2023-12-07T15:20:21;5.40;99.90
843;DHT22;407;48.884;9.126;2023-12-07T15:22:47;5.40;99.90
843;DHT22;407;48.884;9.126;2023-12-07T15:25:12;5.30;99.90
843;DHT22;407;48.884;9.126;2023-12-07T15:27:38;5.30;99.90
843;DHT22;407;48.884;9.126;2023-12-07T15:30:04;5.30;99.90
843;DHT22;407;48.884;9.126;2023-12-07T15:32:32;5.20;99.90
843;DHT22;407;48.884;9.126;2023-12-07T15:34:58;5.10;99.90
843;DHT22;407;48.884;9.126;2023-12-07T15:37:23;5.00;99.90
843;DHT22;407;48.884;9.126;2023-12-07T15:39:50;5.00;99.90
843;DHT22;407;48.884;9.126;2023-12-07T15:42:16;4.90;99.90
843;DHT22;407;48.884;9.126;2023-12-07T15:44:42;4.90;99.90
843;DHT22;407;48.884;9.126;2023-12-07T15:47:09;4.90;99.90
843;DHT22;407;48.884;9.126;2023-12-07T15:49:35;4.80;99.90
843;DHT22;407;48.884;9.126;2023-12-07T15:52:00;4.70;99.90
843;DHT22;407;48.884;9.126;2023-12-07T15:54:27;4.60;99.90
843;DHT22;407;48.884;9.126;2023-12-07T15:56:53;4.50;99.90
843;DHT22;407;48.884;9.126;2023-12-07T15:59:18;4.40;99.90
843;DHT22;407;48.884;9.126;2023-12-07T16:01:44;4.30;99.90
843;DHT22;407;48.884;9.126;2023-12-07T16:04:11;4.30;99.90
843;DHT22;407;48.884;9.126;2023-12-07T16:06:37;4.30;99.90
843;DHT22;407;48.884;9.126;2023-12-07T16:09:04;4.30;99.90
843;DHT22;407;48.884;9.126;2023-12-07T16:11:29;4.20;99.90
843;DHT22;407;48.884;9.126;2023-12-07T16:13:55;4.10;99.90
843;DHT22;407;48.884;9.126;2023-12-07T16:16:20;4.10;99.90
843;DHT22;407;48.884;9.126;2023-12-07T16:18:46;4.10;99.90
843;DHT22;407;48.884;9.126;2023-12-07T16:21:12;4.10;99.90
843;DHT22;407;48.884;9.126;2023-12-07T16:23:37;4.00;99.90
843;DHT22;407;48.884;9.126;2023-12-07T16:26:03;4.00;99.90
843;DHT22;407;48.884;9.126;2023-12-07T16:28:29;4.00;99.90
843;DHT22;407;48.884;9.126;2023-12-07T16:30:54;3.80;99.90
843;DHT22;407;48.884;9.126;2023-12-07T16:33:20;3.70;99.90
843;DHT22;407;48.884;9.126;2023-12-07T16:35:45;3.70;99.90
843;DHT22;407;48.884;9.126;2023-12-07T16:38:11;3.70;99.90
843;DHT22;407;48.884;9.126;2023-12-07T16:40:36;3.70;99.90
843;DHT22;407;48.884;9.126;2023-12-07T16:43:02;3.70;99.90
843;DHT22;407;48.884;9.126;2023-12-07T16:45:27;3.60;99.90
843;DHT22;407;48.884;9.126;2023-12-07T16:47:53;3.60;99.90
843;DHT22;407;48.884;9.126;2023-12-07T16:50:19;3.60;99.90
843;DHT22;407;48.884;9.126;2023-12-07T16:52:44;3.50;99.90